sensor_id;sensor_type;location;lat;lon;timestamp;pressure;altitude;pressure_sealevel;temperature;humidity
69318;BME280;56457;52.190;4.440;2022-08-19T00:00:20;101426.56;;;19.71;94.53
69318;BME280;56457;52.190;4.440;2022-08-19T00:01:21;101433.47;;;19.77;94.39
69318;BME280;56457;52.190;4.440;2022-08-19T00:02:22;101431.72;;;19.76;94.35
69318;BME280;56457;52.190;4.440;2022-08-19T00:03:22;101430.03;;;19.73;94.83
69318;BME280;56457;52.190;4.440;2022-08-19T00:04:26;101429.09;;;19.74;94.24
69318;BME280;56457;52.190;4.440;2022-08-19T00:05:27;101427.31;;;19.75;94.27
69318;BME280;56457;52.190;4.440;2022-08-19T00:06:28;101431.72;;;19.76;93.92
69318;BME280;56457;52.190;4.440;2022-08-19T00:07:29;101432.53;;;19.78;94.25
69318;BME280;56457;52.190;4.440;2022-08-19T00:08:29;101429.88;;;19.78;94.16
69318;BME280;56457;52.190;4.440;2022-08-19T00:09:30;101432.53;;;19.78;94.46
69318;BME280;56457;52.190;4.440;2022-08-19T00:10:31;101431.66;;;19.77;94.32
69318;BME280;56457;52.190;4.440;2022-08-19T00:11:31;101427.28;;;19.76;94.08
69318;BME280;56457;52.190;4.440;2022-08-19T00:12:33;101434.31;;;19.77;94.18
69318;BME280;56457;52.190;4.440;2022-08-19T00:13:33;101428.28;;;19.72;94.65
69318;BME280;56457;52.190;4.440;2022-08-19T00:14:34;101433.75;;;19.69;94.43
69318;BME280;56457;52.190;4.440;2022-08-19T00:15:34;101424.69;;;19.73;94.75
69318;BME280;56457;52.190;4.440;2022-08-19T00:16:36;101430.03;;;19.73;94.23
69318;BME280;56457;52.190;4.440;2022-08-19T00:17:42;101427.44;;;19.72;94.13
69318;BME280;56457;52.190;4.440;2022-08-19T00:18:42;101426.56;;;19.71;93.87
69318;BME280;56457;52.190;4.440;2022-08-19T00:19:43;101424.88;;;19.69;93.92
69318;BME280;56457;52.190;4.440;2022-08-19T00:20:43;101428.44;;;19.68;93.94
69318;BME280;56457;52.190;4.440;2022-08-19T00:21:44;101423.13;;;19.68;94.26
69318;BME280;56457;52.190;4.440;2022-08-19T00:22:45;101429.22;;;19.71;94.20
69318;BME280;56457;52.190;4.440;2022-08-19T00:23:46;101424.69;;;19.73;93.88
69318;BME280;56457;52.190;4.440;2022-08-19T00:24:47;101419.44;;;19.72;93.50
69318;BME280;56457;52.190;4.440;2022-08-19T00:25:47;101420.59;;;19.65;93.85
69318;BME280;56457;52.190;4.440;2022-08-19T00:26:48;101422.38;;;19.64;93.33
69318;BME280;56457;52.190;4.440;2022-08-19T00:27:48;101425.06;;;19.64;93.58
69318;BME280;56457;52.190;4.440;2022-08-19T00:28:49;101426.13;;;19.58;93.42
69318;BME280;56457;52.190;4.440;2022-08-19T00:29:49;101425.31;;;19.56;93.84
69318;BME280;56457;52.190;4.440;2022-08-19T00:30:50;101424.53;;;19.53;94.00
69318;BME280;56457;52.190;4.440;2022-08-19T00:31:51;101423.94;;;19.45;94.09
69318;BME280;56457;52.190;4.440;2022-08-19T00:32:57;101421.38;;;19.42;94.51
69318;BME280;56457;52.190;4.440;2022-08-19T00:33:58;101425.75;;;19.43;94.48
69318;BME280;56457;52.190;4.440;2022-08-19T00:34:58;101428.44;;;19.43;94.09
69318;BME280;56457;52.190;4.440;2022-08-19T00:36:05;101421.31;;;19.43;94.23
69318;BME280;56457;52.190;4.440;2022-08-19T00:37:06;101425.75;;;19.43;94.50
69318;BME280;56457;52.190;4.440;2022-08-19T00:38:06;101422.31;;;19.41;94.35
69318;BME280;56457;52.190;4.440;2022-08-19T00:39:08;101426.81;;;19.39;94.79
69318;BME280;56457;52.190;4.440;2022-08-19T00:40:10;101430.38;;;19.37;94.90
69318;BME280;56457;52.190;4.440;2022-08-19T00:41:18;101432.16;;;19.37;94.60
69318;BME280;56457;52.190;4.440;2022-08-19T00:42:21;101434.88;;;19.35;95.14
69318;BME280;56457;52.190;4.440;2022-08-19T00:43:24;101436.69;;;19.35;94.88
69318;BME280;56457;52.190;4.440;2022-08-19T00:44:27;101435.81;;;19.34;95.30
69318;BME280;56457;52.190;4.440;2022-08-19T00:45:29;101435.88;;;19.33;95.40
69318;BME280;56457;52.190;4.440;2022-08-19T00:46:34;101434.16;;;19.32;95.51
69318;BME280;56457;52.190;4.440;2022-08-19T00:47:36;101436.91;;;19.29;95.42
69318;BME280;56457;52.190;4.440;2022-08-19T00:48:37;101436.03;;;19.28;95.53
69318;BME280;56457;52.190;4.440;2022-08-19T00:49:53;101428.06;;;19.28;95.30
69318;BME280;56457;52.190;4.440;2022-08-19T00:50:55;101432.56;;;19.26;95.39
69318;BME280;56457;52.190;4.440;2022-08-19T00:52:00;101435.22;;;19.26;95.78
69318;BME280;56457;52.190;4.440;2022-08-19T00:53:03;101431.63;;;19.27;95.53
69318;BME280;56457;52.190;4.440;2022-08-19T00:54:04;101421.94;;;19.25;95.62
69318;BME280;56457;52.190;4.440;2022-08-19T00:55:07;101421.09;;;19.24;95.87
69318;BME280;56457;52.190;4.440;2022-08-19T00:56:10;101426.53;;;19.21;95.82
69318;BME280;56457;52.190;4.440;2022-08-19T00:57:15;101421.22;;;19.21;95.70
69318;BME280;56457;52.190;4.440;2022-08-19T00:58:19;101430.00;;;19.23;95.77
69318;BME280;56457;52.190;4.440;2022-08-19T00:59:20;101424.63;;;19.25;95.83
69318;BME280;56457;52.190;4.440;2022-08-19T01:00:23;101423.66;;;19.27;95.66
69318;BME280;56457;52.190;4.440;2022-08-19T01:01:24;101426.31;;;19.27;95.50
69318;BME280;56457;52.190;4.440;2022-08-19T01:02:25;101422.78;;;19.27;95.96
69318;BME280;56457;52.190;4.440;2022-08-19T01:03:27;101428.06;;;19.28;95.74
69318;BME280;56457;52.190;4.440;2022-08-19T01:04:27;101428.06;;;19.28;95.66
69318;BME280;56457;52.190;4.440;2022-08-19T01:05:28;101423.50;;;19.32;95.78
69318;BME280;56457;52.190;4.440;2022-08-19T01:06:30;101426.97;;;19.34;95.53
69318;BME280;56457;52.190;4.440;2022-08-19T01:07:33;101429.56;;;19.35;95.35
69318;BME280;56457;52.190;4.440;2022-08-19T01:08:34;101435.81;;;19.34;95.79
69318;BME280;56457;52.190;4.440;2022-08-19T01:09:35;101434.09;;;19.33;95.36
69318;BME280;56457;52.190;4.440;2022-08-19T01:10:39;101430.44;;;19.36;95.03
69318;BME280;56457;52.190;4.440;2022-08-19T01:11:43;101432.06;;;19.40;94.69
69318;BME280;56457;52.190;4.440;2022-08-19T01:12:45;101426.69;;;19.42;94.91
69318;BME280;56457;52.190;4.440;2022-08-19T01:13:46;101423.06;;;19.44;94.79
69318;BME280;56457;52.190;4.440;2022-08-19T01:14:47;101426.59;;;19.45;94.39
69318;BME280;56457;52.190;4.440;2022-08-19T01:15:57;101426.59;;;19.45;94.29
69318;BME280;56457;52.190;4.440;2022-08-19T01:17:00;101434.59;;;19.45;94.54
69318;BME280;56457;52.190;4.440;2022-08-19T01:18:05;101435.38;;;19.47;94.41
69318;BME280;56457;52.190;4.440;2022-08-19T01:19:15;101428.22;;;19.49;94.04
69318;BME280;56457;52.190;4.440;2022-08-19T01:20:20;101428.19;;;19.50;93.78
69318;BME280;56457;52.190;4.440;2022-08-19T01:21:32;101437.03;;;19.51;93.98
69318;BME280;56457;52.190;4.440;2022-08-19T01:22:42;101437.84;;;19.53;94.23
69318;BME280;56457;52.190;4.440;2022-08-19T01:23:44;101441.44;;;19.52;93.85
69318;BME280;56457;52.190;4.440;2022-08-19T01:24:45;101431.53;;;19.55;93.46
69318;BME280;56457;52.190;4.440;2022-08-19T01:25:48;101440.44;;;19.54;93.85
69318;BME280;56457;52.190;4.440;2022-08-19T01:26:52;101429.72;;;19.56;93.70
69318;BME280;56457;52.190;4.440;2022-08-19T01:27:53;101438.69;;;19.53;93.45
69318;BME280;56457;52.190;4.440;2022-08-19T01:28:56;101430.84;;;19.50;93.07
69318;BME280;56457;52.190;4.440;2022-08-19T01:29:57;101437.94;;;19.50;93.11
69318;BME280;56457;52.190;4.440;2022-08-19T01:30:57;101430.00;;;19.48;93.09
69318;BME280;56457;52.190;4.440;2022-08-19T01:31:57;101438.97;;;19.46;93.18
69318;BME280;56457;52.190;4.440;2022-08-19T01:32:59;101433.81;;;19.41;93.23
69318;BME280;56457;52.190;4.440;2022-08-19T01:34:03;101435.69;;;19.37;93.53
69318;BME280;56457;52.190;4.440;2022-08-19T01:35:05;101439.34;;;19.35;93.79
69318;BME280;56457;52.190;4.440;2022-08-19T01:36:08;101440.38;;;19.31;93.83
69318;BME280;56457;52.190;4.440;2022-08-19T01:37:11;101430.78;;;19.27;93.94
69318;BME280;56457;52.190;4.440;2022-08-19T01:38:24;101435.25;;;19.25;94.33
69318;BME280;56457;52.190;4.440;2022-08-19T01:39:26;101439.72;;;19.24;94.19
69318;BME280;56457;52.190;4.440;2022-08-19T01:40:31;101439.88;;;19.20;94.63
69318;BME280;56457;52.190;4.440;2022-08-19T01:41:32;101429.28;;;19.18;94.89
69318;BME280;56457;52.190;4.440;2022-08-19T01:42:32;101429.41;;;19.15;94.86
69318;BME280;56457;52.190;4.440;2022-08-19T01:43:33;101436.34;;;19.19;95.02
69318;BME280;56457;52.190;4.440;2022-08-19T01:44:34;101432.81;;;19.19;94.92
69318;BME280;56457;52.190;4.440;2022-08-19T01:45:36;101434.56;;;19.20;94.69
69318;BME280;56457;52.190;4.440;2022-08-19T01:46:41;101434.56;;;19.20;94.64
69318;BME280;56457;52.190;4.440;2022-08-19T01:47:42;101439.88;;;19.20;94.79
69318;BME280;56457;52.190;4.440;2022-08-19T01:48:43;101436.34;;;19.19;94.68
69318;BME280;56457;52.190;4.440;2022-08-19T01:49:44;101435.53;;;19.17;95.07
69318;BME280;56457;52.190;4.440;2022-08-19T01:50:44;101434.66;;;19.17;95.26
69318;BME280;56457;52.190;4.440;2022-08-19T01:51:45;101439.91;;;19.18;95.24
69318;BME280;56457;52.190;4.440;2022-08-19T01:52:45;101438.25;;;19.16;95.04
69318;BME280;56457;52.190;4.440;2022-08-19T01:53:49;101440.03;;;19.15;95.07
69318;BME280;56457;52.190;4.440;2022-08-19T01:54:50;101442.69;;;19.15;95.18
69318;BME280;56457;52.190;4.440;2022-08-19T01:55:50;101438.25;;;19.16;95.44
69318;BME280;56457;52.190;4.440;2022-08-19T01:56:53;101445.44;;;19.12;95.74
69318;BME280;56457;52.190;4.440;2022-08-19T01:57:58;101444.63;;;19.10;96.02
69318;BME280;56457;52.190;4.440;2022-08-19T01:59:02;101447.22;;;19.12;96.05
69318;BME280;56457;52.190;4.440;2022-08-19T02:00:08;101442.78;;;19.12;95.88
69318;BME280;56457;52.190;4.440;2022-08-19T02:01:09;101442.84;;;19.10;95.70
69318;BME280;56457;52.190;4.440;2022-08-19T02:02:10;101437.47;;;19.12;95.78
69318;BME280;56457;52.190;4.440;2022-08-19T02:03:10;101440.13;;;19.12;96.22
69318;BME280;56457;52.190;4.440;2022-08-19T02:04:11;101442.78;;;19.12;96.00
69318;BME280;56457;52.190;4.440;2022-08-19T02:05:12;101439.09;;;19.16;95.94
69318;BME280;56457;52.190;4.440;2022-08-19T02:06:12;101434.72;;;19.15;96.35
69318;BME280;56457;52.190;4.440;2022-08-19T02:07:13;101439.16;;;19.15;96.26
69318;BME280;56457;52.190;4.440;2022-08-19T02:08:14;101430.31;;;19.14;96.47
69318;BME280;56457;52.190;4.440;2022-08-19T02:09:14;101434.78;;;19.14;96.56
69318;BME280;56457;52.190;4.440;2022-08-19T02:10:19;101427.66;;;19.14;96.62
69318;BME280;56457;52.190;4.440;2022-08-19T02:11:25;101431.19;;;19.15;96.94
69318;BME280;56457;52.190;4.440;2022-08-19T02:12:26;101430.25;;;19.16;96.65
69318;BME280;56457;52.190;4.440;2022-08-19T02:13:27;101434.59;;;19.18;97.29
69318;BME280;56457;52.190;4.440;2022-08-19T02:14:27;101442.50;;;19.21;97.21
69318;BME280;56457;52.190;4.440;2022-08-19T02:15:28;101433.53;;;19.24;96.79
69318;BME280;56457;52.190;4.440;2022-08-19T02:16:28;101436.13;;;19.25;96.64
69318;BME280;56457;52.190;4.440;2022-08-19T02:17:30;101436.97;;;19.27;96.43
69318;BME280;56457;52.190;4.440;2022-08-19T02:18:31;101438.69;;;19.28;96.75
69318;BME280;56457;52.190;4.440;2022-08-19T02:19:32;101435.22;;;19.26;96.97
69318;BME280;56457;52.190;4.440;2022-08-19T02:20:32;101437.88;;;19.26;97.17
69318;BME280;56457;52.190;4.440;2022-08-19T02:21:34;101429.91;;;19.26;97.12
69318;BME280;56457;52.190;4.440;2022-08-19T02:22:35;101430.78;;;19.27;97.65
69318;BME280;56457;52.190;4.440;2022-08-19T02:23:35;101420.94;;;19.29;97.42
69318;BME280;56457;52.190;4.440;2022-08-19T02:24:36;101424.47;;;19.29;97.78
69318;BME280;56457;52.190;4.440;2022-08-19T02:25:36;101421.88;;;19.28;97.69
69318;BME280;56457;52.190;4.440;2022-08-19T02:26:37;101417.47;;;19.27;97.74
69318;BME280;56457;52.190;4.440;2022-08-19T02:27:39;101427.13;;;19.29;97.32
69318;BME280;56457;52.190;4.440;2022-08-19T02:28:41;101420.94;;;19.29;97.93
69318;BME280;56457;52.190;4.440;2022-08-19T02:29:42;101425.38;;;19.28;97.80
69318;BME280;56457;52.190;4.440;2022-08-19T02:30:43;101418.41;;;19.26;98.39
69318;BME280;56457;52.190;4.440;2022-08-19T02:31:43;101428.13;;;19.25;98.09
69318;BME280;56457;52.190;4.440;2022-08-19T02:32:44;101428.06;;;19.28;98.37
69318;BME280;56457;52.190;4.440;2022-08-19T02:33:45;101425.38;;;19.28;98.65
69318;BME280;56457;52.190;4.440;2022-08-19T02:34:47;101426.19;;;19.30;98.82
69318;BME280;56457;52.190;4.440;2022-08-19T02:35:47;101429.78;;;19.29;98.89
69318;BME280;56457;52.190;4.440;2022-08-19T02:36:47;101429.91;;;19.26;99.19
69318;BME280;56457;52.190;4.440;2022-08-19T02:37:48;101432.50;;;19.28;99.47
69318;BME280;56457;52.190;4.440;2022-08-19T02:39:07;101421.81;;;19.29;99.70
69318;BME280;56457;52.190;4.440;2022-08-19T02:40:07;101428.84;;;19.30;99.71
69318;BME280;56457;52.190;4.440;2022-08-19T02:41:14;101429.69;;;19.32;99.77
69318;BME280;56457;52.190;4.440;2022-08-19T02:42:14;101424.38;;;19.32;99.88
69318;BME280;56457;52.190;4.440;2022-08-19T02:43:15;101418.13;;;19.33;99.58
69318;BME280;56457;52.190;4.440;2022-08-19T02:44:15;101424.38;;;19.32;99.78
69318;BME280;56457;52.190;4.440;2022-08-19T02:45:16;101425.25;;;19.33;99.63
69318;BME280;56457;52.190;4.440;2022-08-19T02:46:22;101430.56;;;19.33;99.65
69318;BME280;56457;52.190;4.440;2022-08-19T02:47:23;101425.25;;;19.31;99.76
69318;BME280;56457;52.190;4.440;2022-08-19T02:48:25;101427.06;;;19.31;99.84
69318;BME280;56457;52.190;4.440;2022-08-19T02:49:26;101428.84;;;19.30;100.00
69318;BME280;56457;52.190;4.440;2022-08-19T02:50:27;101429.72;;;19.31;100.00
69318;BME280;56457;52.190;4.440;2022-08-19T02:51:39;101427.03;;;19.32;100.00
69318;BME280;56457;52.190;4.440;2022-08-19T02:52:40;101427.03;;;19.32;100.00
69318;BME280;56457;52.190;4.440;2022-08-19T02:53:41;101425.25;;;19.31;100.00
69318;BME280;56457;52.190;4.440;2022-08-19T02:54:41;101420.84;;;19.32;100.00
69318;BME280;56457;52.190;4.440;2022-08-19T02:55:44;101421.72;;;19.32;100.00
69318;BME280;56457;52.190;4.440;2022-08-19T02:56:45;101411.09;;;19.31;100.00
69318;BME280;56457;52.190;4.440;2022-08-19T02:57:47;101408.63;;;19.26;100.00
69318;BME280;56457;52.190;4.440;2022-08-19T02:58:48;101402.44;;;19.26;100.00
69318;BME280;56457;52.190;4.440;2022-08-19T02:59:48;101403.31;;;19.26;100.00
69318;BME280;56457;52.190;4.440;2022-08-19T03:00:51;101398.78;;;19.28;100.00
69318;BME280;56457;52.190;4.440;2022-08-19T03:01:52;101397.91;;;19.28;100.00
69318;BME280;56457;52.190;4.440;2022-08-19T03:02:53;101393.53;;;19.27;100.00
69318;BME280;56457;52.190;4.440;2022-08-19T03:03:53;101390.00;;;19.26;100.00
69318;BME280;56457;52.190;4.440;2022-08-19T03:04:54;101387.34;;;19.26;100.00
69318;BME280;56457;52.190;4.440;2022-08-19T03:07:08;101387.38;;;19.25;100.00
69318;BME280;56457;52.190;4.440;2022-08-19T03:08:09;101392.75;;;19.23;100.00
69318;BME280;56457;52.190;4.440;2022-08-19T03:09:13;101388.44;;;19.21;100.00
69318;BME280;56457;52.190;4.440;2022-08-19T03:10:14;101387.56;;;19.20;100.00
69318;BME280;56457;52.190;4.440;2022-08-19T03:11:17;101389.34;;;19.20;100.00
69318;BME280;56457;52.190;4.440;2022-08-19T03:12:18;101385.84;;;19.18;100.00
69318;BME280;56457;52.190;4.440;2022-08-19T03:13:18;101386.78;;;19.17;100.00
69318;BME280;56457;52.190;4.440;2022-08-19T03:14:19;101388.69;;;19.13;100.00
69318;BME280;56457;52.190;4.440;2022-08-19T03:15:19;101389.56;;;19.14;100.00
69318;BME280;56457;52.190;4.440;2022-08-19T03:16:23;101391.34;;;19.13;100.00
69318;BME280;56457;52.190;4.440;2022-08-19T03:17:24;101386.03;;;19.13;100.00
69318;BME280;56457;52.190;4.440;2022-08-19T03:18:24;101386.06;;;19.12;100.00
69318;BME280;56457;52.190;4.440;2022-08-19T03:19:25;101386.03;;;19.13;100.00
69318;BME280;56457;52.190;4.440;2022-08-19T03:20:25;101391.50;;;19.08;100.00
69318;BME280;56457;52.190;4.440;2022-08-19T03:21:29;101394.09;;;19.10;100.00
69318;BME280;56457;52.190;4.440;2022-08-19T03:22:29;101382.53;;;19.11;100.00
69318;BME280;56457;52.190;4.440;2022-08-19T03:23:30;101390.53;;;19.11;100.00
69318;BME280;56457;52.190;4.440;2022-08-19T03:24:31;101389.59;;;19.12;100.00
69318;BME280;56457;52.190;4.440;2022-08-19T03:25:35;101399.47;;;19.08;100.00
69318;BME280;56457;52.190;4.440;2022-08-19T03:26:42;101395.13;;;19.06;100.00
69318;BME280;56457;52.190;4.440;2022-08-19T03:27:42;101396.19;;;19.00;100.00
69318;BME280;56457;52.190;4.440;2022-08-19T03:28:44;101392.66;;;19.00;100.00
69318;BME280;56457;52.190;4.440;2022-08-19T03:29:50;101400.66;;;19.00;100.00
69318;BME280;56457;52.190;4.440;2022-08-19T03:31:00;101393.50;;;19.02;100.00
69318;BME280;56457;52.190;4.440;2022-08-19T03:32:04;101392.66;;;19.01;100.00
69318;BME280;56457;52.190;4.440;2022-08-19T03:33:05;101391.66;;;19.04;100.00
69318;BME280;56457;52.190;4.440;2022-08-19T03:34:06;101386.34;;;19.04;100.00
69318;BME280;56457;52.190;4.440;2022-08-19T03:35:07;101386.28;;;19.05;100.00
69318;BME280;56457;52.190;4.440;2022-08-19T03:36:11;101377.44;;;19.05;100.00
69318;BME280;56457;52.190;4.440;2022-08-19T03:37:12;101382.75;;;19.05;100.00
69318;BME280;56457;52.190;4.440;2022-08-19T03:38:12;101380.22;;;19.02;100.00
69318;BME280;56457;52.190;4.440;2022-08-19T03:39:13;101380.16;;;19.03;100.00
69318;BME280;56457;52.190;4.440;2022-08-19T03:40:14;101379.22;;;19.04;100.00
69318;BME280;56457;52.190;4.440;2022-08-19T03:41:17;101378.28;;;19.07;100.00
69318;BME280;56457;52.190;4.440;2022-08-19T03:42:18;101383.59;;;19.07;100.00
69318;BME280;56457;52.190;4.440;2022-08-19T03:43:19;101381.75;;;19.09;100.00
69318;BME280;56457;52.190;4.440;2022-08-19T03:44:21;101383.47;;;19.10;100.00
69318;BME280;56457;52.190;4.440;2022-08-19T03:45:22;101386.06;;;19.12;100.00
69318;BME280;56457;52.190;4.440;2022-08-19T03:46:24;101382.53;;;19.11;100.00
69318;BME280;56457;52.190;4.440;2022-08-19T03:47:25;101380.88;;;19.08;100.00
69318;BME280;56457;52.190;4.440;2022-08-19T03:48:25;101387.91;;;19.09;100.00
69318;BME280;56457;52.190;4.440;2022-08-19T03:49:28;101387.91;;;19.09;100.00
69318;BME280;56457;52.190;4.440;2022-08-19T03:50:28;101391.44;;;19.10;100.00
69318;BME280;56457;52.190;4.440;2022-08-19T03:51:33;101391.50;;;19.08;100.00
69318;BME280;56457;52.190;4.440;2022-08-19T03:52:35;101395.84;;;19.11;100.00
69318;BME280;56457;52.190;4.440;2022-08-19T03:53:36;101391.44;;;19.10;100.00
69318;BME280;56457;52.190;4.440;2022-08-19T03:54:36;101392.38;;;19.09;100.00
69318;BME280;56457;52.190;4.440;2022-08-19T03:55:41;101395.78;;;19.13;100.00
69318;BME280;56457;52.190;4.440;2022-08-19T03:56:43;101393.09;;;19.14;100.00
69318;BME280;56457;52.190;4.440;2022-08-19T03:57:44;101394.03;;;19.13;100.00
69318;BME280;56457;52.190;4.440;2022-08-19T03:58:45;101393.97;;;19.15;100.00
69318;BME280;56457;52.190;4.440;2022-08-19T03:59:46;101402.88;;;19.14;100.00
69318;BME280;56457;52.190;4.440;2022-08-19T04:00:46;101398.50;;;19.11;100.00
69318;BME280;56457;52.190;4.440;2022-08-19T04:01:47;101391.38;;;19.12;100.00
69318;BME280;56457;52.190;4.440;2022-08-19T04:02:47;101395.78;;;19.13;100.00
69318;BME280;56457;52.190;4.440;2022-08-19T04:03:48;101399.38;;;19.12;100.00
69318;BME280;56457;52.190;4.440;2022-08-19T04:04:53;101400.34;;;19.09;100.00
69318;BME280;56457;52.190;4.440;2022-08-19T04:05:54;101395.13;;;19.06;100.00
69318;BME280;56457;52.190;4.440;2022-08-19T04:06:55;101396.00;;;19.06;100.00
69318;BME280;56457;52.190;4.440;2022-08-19T04:07:56;101400.44;;;19.06;100.00
69318;BME280;56457;52.190;4.440;2022-08-19T04:09:00;101397.84;;;19.04;100.00
69318;BME280;56457;52.190;4.440;2022-08-19T04:10:02;101403.16;;;19.04;100.00
69318;BME280;56457;52.190;4.440;2022-08-19T04:11:07;101402.28;;;19.04;100.00
69318;BME280;56457;52.190;4.440;2022-08-19T04:12:08;101405.88;;;19.03;100.00
69318;BME280;56457;52.190;4.440;2022-08-19T04:13:08;101405.88;;;19.03;100.00
69318;BME280;56457;52.190;4.440;2022-08-19T04:14:11;101406.75;;;19.03;100.00
69318;BME280;56457;52.190;4.440;2022-08-19T04:15:11;101405.88;;;19.03;100.00
69318;BME280;56457;52.190;4.440;2022-08-19T04:16:12;101405.94;;;19.01;100.00
69318;BME280;56457;52.190;4.440;2022-08-19T04:17:12;101411.19;;;19.03;100.00
69318;BME280;56457;52.190;4.440;2022-08-19T04:18:14;101410.22;;;19.05;100.00
69318;BME280;56457;52.190;4.440;2022-08-19T04:19:16;101402.22;;;19.05;100.00
69318;BME280;56457;52.190;4.440;2022-08-19T04:20:16;101404.03;;;19.05;100.00
69318;BME280;56457;52.190;4.440;2022-08-19T04:21:23;101412.13;;;19.02;100.00
69318;BME280;56457;52.190;4.440;2022-08-19T04:22:23;101404.16;;;19.00;100.00
69318;BME280;56457;52.190;4.440;2022-08-19T04:23:24;101414.78;;;19.02;100.00
69318;BME280;56457;52.190;4.440;2022-08-19T04:24:24;101412.06;;;19.03;100.00
69318;BME280;56457;52.190;4.440;2022-08-19T04:25:25;101408.53;;;19.03;100.00
69318;BME280;56457;52.190;4.440;2022-08-19T04:26:28;101404.03;;;19.05;100.00
69318;BME280;56457;52.190;4.440;2022-08-19T04:27:32;101419.03;;;19.07;100.00
69318;BME280;56457;52.190;4.440;2022-08-19T04:28:33;101409.19;;;19.09;100.00
69318;BME280;56457;52.190;4.440;2022-08-19T04:29:36;101403.06;;;19.07;100.00
69318;BME280;56457;52.190;4.440;2022-08-19T04:30:45;101410.19;;;19.07;100.00
69318;BME280;56457;52.190;4.440;2022-08-19T04:31:48;101409.34;;;19.05;100.00
69318;BME280;56457;52.190;4.440;2022-08-19T04:32:49;101403.38;;;18.98;100.00
69318;BME280;56457;52.190;4.440;2022-08-19T04:33:50;101404.22;;;18.99;100.00
69318;BME280;56457;52.190;4.440;2022-08-19T04:34:51;101407.75;;;18.99;100.00
69318;BME280;56457;52.190;4.440;2022-08-19T04:35:52;101406.88;;;18.99;100.00
69318;BME280;56457;52.190;4.440;2022-08-19T04:36:54;101394.53;;;18.98;100.00
69318;BME280;56457;52.190;4.440;2022-08-19T04:37:55;101401.56;;;18.99;100.00
69318;BME280;56457;52.190;4.440;2022-08-19T04:38:57;101405.16;;;18.98;100.00
69318;BME280;56457;52.190;4.440;2022-08-19T04:39:58;101403.50;;;18.95;100.00
69318;BME280;56457;52.190;4.440;2022-08-19T04:41:18;101401.69;;;18.96;100.00
69318;BME280;56457;52.190;4.440;2022-08-19T04:42:37;101409.63;;;18.97;100.00
69318;BME280;56457;52.190;4.440;2022-08-19T04:43:40;101401.63;;;18.97;100.00
69318;BME280;56457;52.190;4.440;2022-08-19T04:44:40;101402.50;;;18.98;100.00
69318;BME280;56457;52.190;4.440;2022-08-19T04:45:45;101395.38;;;18.98;100.00
69318;BME280;56457;52.190;4.440;2022-08-19T04:46:46;101399.84;;;18.98;100.00
69318;BME280;56457;52.190;4.440;2022-08-19T04:47:48;101402.50;;;18.98;100.00
69318;BME280;56457;52.190;4.440;2022-08-19T04:48:48;101400.66;;;19.00;100.00
69318;BME280;56457;52.190;4.440;2022-08-19T04:49:49;101407.75;;;18.99;100.00
69318;BME280;56457;52.190;4.440;2022-08-19T04:50:49;101395.31;;;19.01;100.00
69318;BME280;56457;52.190;4.440;2022-08-19T04:51:52;101398.75;;;19.03;100.00
69318;BME280;56457;52.190;4.440;2022-08-19T04:52:54;101396.88;;;19.07;100.00
69318;BME280;56457;52.190;4.440;2022-08-19T04:53:56;101403.06;;;19.07;100.00
69318;BME280;56457;52.190;4.440;2022-08-19T04:54:57;101403.00;;;19.09;100.00
69318;BME280;56457;52.190;4.440;2022-08-19T04:55:58;101406.59;;;19.08;100.00
69318;BME280;56457;52.190;4.440;2022-08-19T04:56:59;101395.97;;;19.08;100.00
69318;BME280;56457;52.190;4.440;2022-08-19T04:57:59;101404.69;;;19.12;100.00
69318;BME280;56457;52.190;4.440;2022-08-19T04:59:00;101400.22;;;19.12;100.00
69318;BME280;56457;52.190;4.440;2022-08-19T05:00:04;101394.91;;;19.12;100.00
69318;BME280;56457;52.190;4.440;2022-08-19T05:01:04;101401.06;;;19.14;100.00
69318;BME280;56457;52.190;4.440;2022-08-19T05:02:07;101405.41;;;19.17;100.00
69318;BME280;56457;52.190;4.440;2022-08-19T05:03:08;101407.09;;;19.19;100.00
69318;BME280;56457;52.190;4.440;2022-08-19T05:04:09;101412.31;;;19.22;100.00
69318;BME280;56457;52.190;4.440;2022-08-19T05:05:09;101412.31;;;19.22;100.00
69318;BME280;56457;52.190;4.440;2022-08-19T05:06:13;101417.56;;;19.24;100.00
69318;BME280;56457;52.190;4.440;2022-08-19T05:07:13;101409.53;;;19.25;100.00
69318;BME280;56457;52.190;4.440;2022-08-19T05:08:19;101413.03;;;19.27;100.00
69318;BME280;56457;52.190;4.440;2022-08-19T05:09:20;101406.84;;;19.27;100.00
69318;BME280;56457;52.190;4.440;2022-08-19T05:10:21;101415.56;;;19.30;100.00
69318;BME280;56457;52.190;4.440;2022-08-19T05:11:25;101418.13;;;19.33;100.00
69318;BME280;56457;52.190;4.440;2022-08-19T05:12:27;101420.78;;;19.33;100.00
69318;BME280;56457;52.190;4.440;2022-08-19T05:13:28;101414.38;;;19.39;100.00
69318;BME280;56457;52.190;4.440;2022-08-19T05:14:30;101410.66;;;19.43;100.00
69318;BME280;56457;52.190;4.440;2022-08-19T05:15:31;101421.28;;;19.45;100.00
69318;BME280;56457;52.190;4.440;2022-08-19T05:16:31;101412.44;;;19.44;100.00
69318;BME280;56457;52.190;4.440;2022-08-19T05:17:32;101414.97;;;19.47;100.00
69318;BME280;56457;52.190;4.440;2022-08-19T05:18:33;101409.50;;;19.52;100.00
69318;BME280;56457;52.190;4.440;2022-08-19T05:19:52;101414.75;;;19.53;100.00
69318;BME280;56457;52.190;4.440;2022-08-19T05:21:14;101413.72;;;19.57;100.00
69318;BME280;56457;52.190;4.440;2022-08-19T05:22:33;101415.38;;;19.61;100.00
69318;BME280;56457;52.190;4.440;2022-08-19T05:23:36;101419.94;;;19.58;100.00
69318;BME280;56457;52.190;4.440;2022-08-19T05:24:37;101419.81;;;19.61;100.00